Time;durP1;ratioP1;P1;durP2;ratioP2;P2;SDS_P1;SDS_P2;PMS_P1;PMS_P2;Temp;Humidity;BMP_temperature;BMP_pressure;BME280_temperature;BME280_humidity;BME280_pressure;Samples;Min_cycle;Max_cycle;Signal;HPM_P1;HPM_P2
2023/03/08 00:01:42;;;;;;;2.27;1.27;;;-1.00;99.90;;;;;;5105436;28;20498;-83
2023/03/08 00:04:09;;;;;;;4.87;1.33;;;-0.90;99.90;;;;;;5131636;27;20539;-83
2023/03/08 00:06:35;;;;;;;3.03;1.30;;;-1.00;99.90;;;;;;5108220;28;20442;-83
2023/03/08 00:09:01;;;;;;;3.80;1.50;;;-1.00;99.90;;;;;;5117483;27;20577;-83
2023/03/08 00:11:28;;;;;;;5.93;1.60;;;-1.00;99.90;;;;;;5096842;27;20053;-84
2023/03/08 00:13:54;;;;;;;7.00;1.50;;;-1.00;99.90;;;;;;5107045;28;20067;-83
2023/03/08 00:16:20;;;;;;;1.80;1.20;;;-1.10;99.90;;;;;;5105881;28;20035;-83
2023/03/08 00:18:45;;;;;;;2.80;1.50;;;-1.10;99.90;;;;;;5106628;28;20513;-83
2023/03/08 00:21:17;;;;;;;2.77;1.10;;;-1.10;99.90;;;;;;5104952;28;20487;-83
2023/03/08 00:23:43;;;;;;;3.87;1.40;;;-1.10;99.90;;;;;;5112091;27;20114;-83
2023/03/08 00:26:10;;;;;;;2.17;1.40;;;-1.10;99.90;;;;;;5118444;27;20042;-83
2023/03/08 00:28:35;;;;;;;3.33;1.40;;;-1.10;99.90;;;;;;5107846;28;20036;-83
2023/03/08 00:31:04;;;;;;;3.47;1.30;;;-1.20;99.90;;;;;;5092936;28;20166;-83
2023/03/08 00:33:31;;;;;;;3.47;1.30;;;-1.20;99.90;;;;;;5112138;28;20047;-83
2023/03/08 00:36:17;;;;;;;2.10;1.37;;;-1.20;99.90;;;;;;5107846;28;20059;-83
2023/03/08 00:38:44;;;;;;;4.27;1.23;;;-1.20;99.90;;;;;;5100561;28;20058;-82
2023/03/08 00:41:10;;;;;;;2.80;1.30;;;-1.30;99.90;;;;;;5116178;28;20036;-83
2023/03/08 00:43:35;;;;;;;4.47;1.50;;;-1.30;99.90;;;;;;5111019;28;20402;-83
2023/03/08 00:46:01;;;;;;;5.30;1.30;;;-1.30;99.90;;;;;;5109452;28;20460;-83
2023/03/08 00:48:27;;;;;;;3.33;1.43;;;-1.30;99.90;;;;;;5098910;27;20062;-82
2023/03/08 00:50:53;;;;;;;2.83;1.50;;;-1.30;99.90;;;;;;5118059;27;20048;-83
2023/03/08 00:53:19;;;;;;;3.33;1.13;;;-1.30;99.90;;;;;;5121058;27;20420;-83
2023/03/08 00:55:53;;;;;;;1.90;1.27;;;-1.30;99.90;;;;;;5088822;28;20043;-81
2023/03/08 00:58:19;;;;;;;;;;;-1.30;99.90;;;;;;5099279;27;20039;-82
2023/03/08 01:00:45;;;;;;;3.80;1.40;;;-1.30;99.90;;;;;;5086138;27;19916;-83
2023/03/08 01:03:10;;;;;;;2.80;1.40;;;-1.30;99.90;;;;;;5117182;27;20524;-83
2023/03/08 01:05:45;;;;;;;2.83;1.27;;;-1.30;99.90;;;;;;5107906;28;20118;-83
2023/03/08 01:08:11;;;;;;;3.43;1.60;;;-1.20;99.90;;;;;;5113040;28;20036;-83
2023/03/08 01:10:37;;;;;;;2.37;1.17;;;-1.10;99.90;;;;;;5119911;27;20118;-83
2023/03/08 01:13:05;;;;;;;4.70;1.30;;;-1.10;99.90;;;;;;5112036;27;20126;-83
2023/03/08 01:15:34;;;;;;;3.10;1.20;;;-1.10;99.90;;;;;;5094801;28;20035;-83
2023/03/08 01:18:00;;;;;;;3.37;1.30;;;-1.00;99.90;;;;;;5114551;27;20094;-83
2023/03/08 01:20:25;;;;;;;5.07;1.10;;;-1.00;99.90;;;;;;5096602;28;20552;-83
2023/03/08 01:22:51;;;;;;;2.20;1.20;;;-1.00;99.90;;;;;;5105267;27;20032;-83
2023/03/08 01:25:16;;;;;;;1.40;0.90;;;-1.00;99.90;;;;;;5114281;27;20039;-83
2023/03/08 01:27:42;;;;;;;4.30;1.10;;;-1.00;99.90;;;;;;5118609;27;20070;-83
2023/03/08 01:30:08;;;;;;;2.93;0.90;;;-1.00;99.90;;;;;;5112415;27;20575;-83
2023/03/08 01:32:34;;;;;;;1.53;1.00;;;-1.00;99.90;;;;;;5115230;27;20392;-84
2023/03/08 01:35:03;;;;;;;3.40;1.27;;;-1.00;99.90;;;;;;5092354;27;20047;-83
2023/03/08 01:37:29;;;;;;;4.50;1.20;;;-0.50;99.90;;;;;;5110249;27;20044;-83
2023/03/08 01:39:55;;;;;;;3.13;1.00;;;-1.00;99.90;;;;;;5119886;27;20081;-83
2023/03/08 01:42:20;;;;;;;2.50;1.00;;;-1.10;99.90;;;;;;5112335;27;20048;-83
2023/03/08 01:45:02;;;;;;;2.87;0.90;;;-1.10;99.90;;;;;;5100082;28;20069;-83
2023/03/08 01:47:30;;;;;;;2.20;0.90;;;-1.10;99.90;;;;;;5110861;28;20032;-83
2023/03/08 01:50:01;;;;;;;3.83;1.00;;;-1.10;99.90;;;;;;5111072;27;20049;-82
2023/03/08 01:52:50;;;;;;;1.93;1.10;;;-1.20;99.90;;;;;;5099692;27;20394;-83
2023/03/08 01:55:17;;;;;;;2.67;1.07;;;-1.10;99.90;;;;;;5104129;28;20031;-84
2023/03/08 01:57:47;;;;;;;2.43;0.83;;;-1.20;99.90;;;;;;5107303;27;20042;-83
2023/03/08 02:00:17;;;;;;;3.30;0.93;;;-1.20;99.90;;;;;;5138718;27;20173;-84
2023/03/08 02:02:56;;;;;;;2.23;0.93;;;-1.20;99.90;;;;;;5093358;27;20055;-83
2023/03/08 02:05:23;;;;;;;2.10;1.00;;;-1.20;99.90;;;;;;5090293;27;20079;-84
2023/03/08 02:07:48;;;;;;;3.60;1.03;;;-1.20;99.90;;;;;;5110302;28;20448;-84
2023/03/08 02:10:15;;;;;;;4.77;1.10;;;-1.20;99.90;;;;;;5136757;27;20044;-82
2023/03/08 02:12:40;;;;;;;2.50;1.00;;;-1.20;99.90;;;;;;5113706;27;20039;-84
2023/03/08 02:15:09;;;;;;;2.53;1.00;;;-1.20;99.90;;;;;;5106295;27;20058;-84
2023/03/08 02:17:37;;;;;;;4.67;1.20;;;-1.20;99.90;;;;;;5100412;28;20039;-84
2023/03/08 02:20:27;;;;;;;1.43;0.90;;;-1.20;99.90;;;;;;5114061;27;20087;-84
2023/03/08 02:22:53;;;;;;;3.93;1.60;;;-1.20;99.90;;;;;;5105445;27;20058;-83
2023/03/08 02:25:22;;;;;;;5.50;1.10;;;-1.20;99.90;;;;;;5101943;27;20036;-83
2023/03/08 02:27:49;;;;;;;2.97;1.67;;;-1.20;99.90;;;;;;5098882;27;20080;-84
2023/03/08 02:30:23;;;;;;;5.17;1.20;;;-1.20;99.90;;;;;;5112694;27;20066;-84
2023/03/08 02:32:48;;;;;;;2.15;1.10;;;-1.20;99.90;;;;;;5088948;28;20045;-83
2023/03/08 02:35:14;;;;;;;2.30;1.10;;;-1.20;99.90;;;;;;5110899;27;20491;-84
2023/03/08 02:37:39;;;;;;;2.37;1.20;;;-1.30;99.90;;;;;;5103183;27;20039;-83
2023/03/08 02:40:06;;;;;;;2.87;1.30;;;-1.30;99.90;;;;;;5121233;27;20118;-83
2023/03/08 02:42:32;;;;;;;2.37;1.30;;;-1.30;99.90;;;;;;5098414;27;20062;-84
2023/03/08 02:44:57;;;;;;;3.27;1.37;;;-1.40;99.90;;;;;;5106785;27;20063;-83
2023/03/08 02:47:23;;;;;;;3.07;1.27;;;-1.40;99.90;;;;;;5110362;27;20041;-83
2023/03/08 02:49:48;;;;;;;1.87;1.10;;;-1.40;99.90;;;;;;5094022;28;20034;-84
2023/03/08 02:52:14;;;;;;;3.40;1.60;;;-1.40;99.90;;;;;;5087028;28;20156;-83
2023/03/08 02:54:39;;;;;;;3.23;1.10;;;-1.40;99.90;;;;;;5109652;28;20405;-83
2023/03/08 02:57:05;;;;;;;3.60;1.70;;;-1.40;99.90;;;;;;5116562;27;20130;-83
2023/03/08 02:59:30;;;;;;;4.03;1.10;;;-1.50;99.90;;;;;;5116661;27;20452;-83
2023/03/08 03:01:56;;;;;;;2.97;1.40;;;-1.50;99.90;;;;;;5116381;27;20041;-84
2023/03/08 03:04:22;;;;;;;2.47;0.87;;;-1.40;99.90;;;;;;5102805;28;20036;-84
2023/03/08 03:06:47;;;;;;;3.43;0.93;;;-1.40;99.90;;;;;;5114316;27;20051;-84
2023/03/08 03:09:13;;;;;;;1.80;0.90;;;-1.40;99.90;;;;;;5097283;27;20526;-83
2023/03/08 03:11:40;;;;;;;3.40;1.10;;;-1.40;99.90;;;;;;5092890;28;20051;-84
2023/03/08 03:14:05;;;;;;;4.77;1.10;;;-1.50;99.90;;;;;;5109357;28;20507;-84
2023/03/08 03:16:31;;;;;;;3.47;1.00;;;-1.40;99.90;;;;;;5096744;27;20158;-84
2023/03/08 03:18:57;;;;;;;3.30;1.10;;;-1.50;99.90;;;;;;5107305;27;20130;-84
2023/03/08 03:21:23;;;;;;;3.47;1.03;;;-1.40;99.90;;;;;;5107816;27;20132;-83
2023/03/08 03:23:49;;;;;;;4.73;1.00;;;-1.40;99.90;;;;;;5088337;28;20454;-83
2023/03/08 03:26:18;;;;;;;3.50;1.07;;;-1.40;99.90;;;;;;5108976;27;20063;-84
2023/03/08 03:28:44;;;;;;;1.53;0.80;;;-1.50;99.90;;;;;;5121446;27;20490;-83
2023/03/08 03:31:13;;;;;;;5.70;1.27;;;-1.50;99.90;;;;;;5099574;28;20047;-83
2023/03/08 03:33:39;;;;;;;2.33;0.90;;;-1.50;99.90;;;;;;5107906;27;20395;-83
2023/03/08 03:36:05;;;;;;;2.83;1.10;;;-1.60;99.90;;;;;;5118171;27;20051;-84
2023/03/08 03:38:31;;;;;;;3.03;0.90;;;-1.60;99.90;;;;;;5102252;28;20123;-83
2023/03/08 03:41:07;;;;;;;5.00;1.20;;;-1.60;99.90;;;;;;5109310;27;20118;-83
2023/03/08 03:43:33;;;;;;;5.40;1.13;;;-1.60;99.90;;;;;;5109415;27;20050;-83
2023/03/08 03:46:01;;;;;;;3.50;1.10;;;-1.60;99.90;;;;;;5109242;28;20031;-83
2023/03/08 03:48:26;;;;;;;2.33;1.13;;;-1.60;99.90;;;;;;5106623;27;20055;-83
2023/03/08 03:50:57;;;;;;;1.47;0.73;;;-1.60;99.90;;;;;;5114676;27;20040;-83
2023/03/08 03:53:23;;;;;;;3.00;0.90;;;-1.60;99.90;;;;;;5103789;28;20097;-83
2023/03/08 03:55:49;;;;;;;4.63;0.80;;;-1.60;99.90;;;;;;5106005;28;20976;-83
2023/03/08 03:58:14;;;;;;;2.93;1.13;;;-1.60;99.90;;;;;;5110337;28;20089;-84
2023/03/08 04:00:40;;;;;;;2.90;1.83;;;-1.70;99.90;;;;;;5089859;28;20114;-83
2023/03/08 04:03:06;;;;;;;3.53;1.10;;;-1.60;99.90;;;;;;5107695;27;20063;-83
2023/03/08 04:05:31;;;;;;;5.63;1.13;;;-1.70;99.90;;;;;;5132008;27;20060;-83
2023/03/08 04:07:57;;;;;;;2.90;1.20;;;-1.70;99.90;;;;;;5106129;27;20028;-83
2023/03/08 04:10:23;;;;;;;3.37;0.97;;;-1.80;99.90;;;;;;5109880;27;20039;-82
2023/03/08 04:12:49;;;;;;;2.03;1.07;;;-1.60;99.90;;;;;;5116540;27;20458;-83
2023/03/08 04:15:14;;;;;;;1.97;1.33;;;-1.80;99.90;;;;;;5097080;27;20035;-83
2023/03/08 04:17:40;;;;;;;3.13;1.10;;;-1.80;99.90;;;;;;5108112;28;20050;-82
2023/03/08 04:20:06;;;;;;;2.07;1.00;;;-1.80;99.90;;;;;;5089357;28;20597;-82
2023/03/08 04:22:32;;;;;;;1.53;0.93;;;-1.80;99.90;;;;;;5109846;28;20355;-83
2023/03/08 04:24:58;;;;;;;2.73;0.93;;;-1.90;99.90;;;;;;5088544;28;20035;-83
2023/03/08 04:27:23;;;;;;;2.00;1.07;;;-1.90;99.90;;;;;;5139271;27;20036;-83
2023/03/08 04:29:49;;;;;;;2.10;1.10;;;-1.90;99.90;;;;;;5110508;28;20027;-82
2023/03/08 04:32:14;;;;;;;2.93;1.10;;;-1.90;99.90;;;;;;5092204;28;20038;-82
2023/03/08 04:34:41;;;;;;;1.47;0.90;;;-1.90;99.90;;;;;;5092537;28;20039;-83
2023/03/08 04:37:09;;;;;;;4.00;1.60;;;-1.90;99.90;;;;;;5111764;28;20551;-83
2023/03/08 04:39:35;;;;;;;3.73;1.03;;;-1.90;99.90;;;;;;5101427;28;20047;-82
2023/03/08 04:42:00;;;;;;;3.77;1.10;;;-1.90;99.90;;;;;;5102170;28;20040;-82
2023/03/08 04:44:26;;;;;;;5.83;1.13;;;-1.90;99.90;;;;;;5105524;28;20461;-83
2023/03/08 04:46:52;;;;;;;3.27;1.47;;;-1.90;99.90;;;;;;5107919;28;20512;-83
2023/03/08 04:49:17;;;;;;;3.03;1.10;;;-1.90;99.90;;;;;;5107788;28;20059;-82
2023/03/08 04:51:43;;;;;;;4.27;1.03;;;-1.90;99.90;;;;;;5123689;28;20517;-83
2023/03/08 04:54:09;;;;;;;3.90;1.20;;;-1.90;99.90;;;;;;5106279;28;20123;-82
2023/03/08 04:56:34;;;;;;;2.13;1.23;;;-1.90;99.90;;;;;;5107740;28;20054;-83
2023/03/08 04:59:00;;;;;;;3.87;1.00;;;-1.90;99.90;;;;;;5103675;28;20037;-83
2023/03/08 05:01:26;;;;;;;3.23;0.97;;;-1.90;99.90;;;;;;5137955;27;20047;-83
2023/03/08 05:03:52;;;;;;;2.37;1.00;;;-1.90;99.90;;;;;;5110525;28;21534;-83
2023/03/08 05:06:20;;;;;;;3.63;1.07;;;-1.90;99.90;;;;;;5088634;28;20050;-82
2023/03/08 05:08:45;;;;;;;3.33;1.30;;;-1.90;99.90;;;;;;5105401;27;20487;-82
2023/03/08 05:11:20;;;;;;;4.07;1.17;;;-2.00;99.90;;;;;;5107352;28;20036;-83
2023/03/08 05:13:45;;;;;;;1.50;1.10;;;-1.90;99.90;;;;;;5105049;28;20039;-83
2023/03/08 05:16:11;;;;;;;2.47;1.10;;;-1.90;99.90;;;;;;5114015;28;20039;-83
2023/03/08 05:18:36;;;;;;;1.67;1.00;;;-1.90;99.90;;;;;;5110132;28;21452;-82
2023/03/08 05:21:09;;;;;;;1.63;1.10;;;-1.90;99.90;;;;;;5096182;28;20031;-82
2023/03/08 05:23:35;;;;;;;3.03;1.10;;;-1.90;99.90;;;;;;5100602;28;20078;-83
2023/03/08 05:26:03;;;;;;;3.63;1.20;;;-1.90;99.90;;;;;;5103276;28;20067;-83
2023/03/08 05:28:31;;;;;;;3.27;0.90;;;-2.00;99.90;;;;;;5086462;28;20027;-83
2023/03/08 05:31:13;;;;;;;2.20;1.03;;;-2.00;99.90;;;;;;5105441;28;20039;-83
2023/03/08 05:33:39;;;;;;;3.73;1.53;;;-2.00;99.90;;;;;;5105470;27;20042;-83
2023/03/08 05:36:06;;;;;;;2.33;0.90;;;-2.00;99.90;;;;;;5118431;27;20087;-82
2023/03/08 05:38:32;;;;;;;3.00;0.80;;;-2.00;99.90;;;;;;5090340;28;20039;-83
2023/03/08 05:41:03;;;;;;;2.23;1.03;;;-2.00;99.90;;;;;;5107837;27;20115;-83
2023/03/08 05:43:29;;;;;;;3.27;1.20;;;-2.00;99.90;;;;;;5090194;28;20036;-83
2023/03/08 05:46:01;;;;;;;2.27;1.00;;;-2.00;99.90;;;;;;5108576;28;20031;-83
2023/03/08 05:48:26;;;;;;;3.10;1.20;;;-2.00;99.90;;;;;;5107505;28;20138;-83
2023/03/08 05:50:52;;;;;;;1.80;1.00;;;-2.00;99.90;;;;;;5109601;28;20119;-83
2023/03/08 05:53:18;;;;;;;5.17;1.30;;;-2.10;99.90;;;;;;5092049;28;20044;-83
2023/03/08 05:55:44;;;;;;;1.80;1.20;;;-2.00;99.90;;;;;;5118672;27;20107;-83
2023/03/08 05:58:09;;;;;;;2.13;1.30;;;-2.00;99.90;;;;;;5114359;27;20042;-83
2023/03/08 06:00:35;;;;;;;4.27;1.33;;;-2.10;99.90;;;;;;5092210;28;20044;-82
2023/03/08 06:03:04;;;;;;;4.17;1.50;;;-2.10;99.90;;;;;;5090872;28;20107;-83
2023/03/08 06:05:30;;;;;;;2.30;1.17;;;-2.00;99.90;;;;;;5111445;27;20050;-82
2023/03/08 06:07:56;;;;;;;3.03;1.40;;;-2.10;99.90;;;;;;5092869;28;20028;-83
2023/03/08 06:10:22;;;;;;;3.03;1.10;;;-2.10;99.90;;;;;;5090834;28;20036;-83
2023/03/08 06:12:47;;;;;;;2.50;1.13;;;-2.00;99.90;;;;;;5109036;28;20387;-83
2023/03/08 06:15:13;;;;;;;2.37;1.40;;;-2.00;99.90;;;;;;5113456;27;20096;-83
2023/03/08 06:17:39;;;;;;;2.67;1.33;;;-2.00;99.90;;;;;;5110532;27;20148;-83
2023/03/08 06:20:06;;;;;;;4.60;1.30;;;-2.00;99.90;;;;;;5108605;28;20451;-83
2023/03/08 06:22:32;;;;;;;5.63;1.63;;;-2.00;99.90;;;;;;5109177;27;20100;-83
2023/03/08 06:24:57;;;;;;;3.03;1.20;;;-2.00;99.90;;;;;;5110477;27;20032;-83
2023/03/08 06:27:23;;;;;;;3.13;1.40;;;-2.00;99.90;;;;;;5098030;27;20042;-83
2023/03/08 06:29:49;;;;;;;3.87;1.40;;;-2.00;99.90;;;;;;5101705;28;20024;-84
2023/03/08 06:32:15;;;;;;;2.60;1.30;;;-2.00;99.90;;;;;;5093835;28;20036;-83
2023/03/08 06:34:41;;;;;;;3.63;2.00;;;-2.10;99.90;;;;;;5099661;28;20035;-83
2023/03/08 06:37:07;;;;;;;3.33;2.13;;;-2.00;99.90;;;;;;5086782;28;20532;-83
2023/03/08 06:39:33;;;;;;;3.67;1.90;;;-2.00;99.90;;;;;;5114111;27;20039;-83
2023/03/08 06:42:01;;;;;;;4.20;1.70;;;-2.00;99.90;;;;;;5109006;28;20444;-83
2023/03/08 06:44:27;;;;;;;3.47;1.57;;;-2.00;99.90;;;;;;5102448;28;20044;-83
2023/03/08 06:46:53;;;;;;;2.33;1.50;;;-1.90;99.90;;;;;;5105418;28;20076;-83
2023/03/08 06:49:18;;;;;;;2.47;1.50;;;-1.90;99.90;;;;;;5130008;27;20036;-83
2023/03/08 06:51:44;;;;;;;2.87;1.80;;;-1.90;99.90;;;;;;5105371;28;20510;-83
2023/03/08 06:54:09;;;;;;;3.30;1.70;;;-1.80;99.90;;;;;;5089401;28;20452;-83
2023/03/08 06:56:35;;;;;;;4.43;2.13;;;-1.80;99.90;;;;;;5116267;27;20402;-84
2023/03/08 06:59:01;;;;;;;3.80;2.27;;;-1.80;99.90;;;;;;5115245;27;20043;-84
2023/03/08 07:01:26;;;;;;;3.43;2.83;;;-1.70;99.90;;;;;;5111714;27;20062;-85
2023/03/08 07:03:52;;;;;;;5.40;3.30;;;-1.70;99.90;;;;;;5107103;28;20032;-85
2023/03/08 07:06:18;;;;;;;5.37;3.90;;;-1.60;99.90;;;;;;5104035;28;20032;-85
2023/03/08 07:08:43;;;;;;;6.23;4.20;;;-1.60;99.90;;;;;;5104865;28;20039;-86
2023/03/08 07:11:09;;;;;;;6.23;5.13;;;-1.60;99.90;;;;;;5138876;27;20043;-85
2023/03/08 07:13:36;;;;;;;6.33;4.90;;;-1.60;99.90;;;;;;5106127;28;20082;-86
2023/03/08 07:16:08;;;;;;;8.40;6.13;;;-1.50;99.90;;;;;;5105035;28;20040;-85
2023/03/08 07:18:33;;;;;;;11.33;6.30;;;-1.50;99.90;;;;;;5109795;28;20031;-86
2023/03/08 07:20:59;;;;;;;10.40;6.17;;;-1.40;99.90;;;;;;5122695;27;20039;-85
2023/03/08 07:23:27;;;;;;;10.60;6.20;;;-1.40;99.90;;;;;;5097222;28;20112;-86
2023/03/08 07:25:53;;;;;;;9.63;6.40;;;-1.30;99.90;;;;;;5111976;27;20495;-86
2023/03/08 07:28:18;;;;;;;9.23;6.33;;;-1.30;99.90;;;;;;5122188;27;20040;-85
2023/03/08 07:30:49;;;;;;;8.70;6.53;;;-1.20;99.90;;;;;;5101939;28;20038;-85
2023/03/08 07:33:15;;;;;;;9.23;7.03;;;-1.20;99.90;;;;;;5110393;28;20035;-85
2023/03/08 07:35:40;;;;;;;11.57;7.53;;;-1.10;99.90;;;;;;5105498;28;20036;-85
2023/03/08 07:38:06;;;;;;;11.53;7.47;;;-1.10;99.90;;;;;;5140529;27;20051;-85
2023/03/08 07:40:32;;;;;;;10.30;7.60;;;-1.00;99.90;;;;;;5109307;28;20407;-85
2023/03/08 07:42:57;;;;;;;10.93;7.77;;;-0.90;99.90;;;;;;5128167;27;20400;-84
2023/03/08 07:45:23;;;;;;;12.33;7.70;;;-0.90;99.90;;;;;;5102364;28;20039;-84
2023/03/08 07:47:51;;;;;;;10.20;7.90;;;-0.80;99.90;;;;;;5093725;28;20071;-84
2023/03/08 07:50:17;;;;;;;9.40;7.40;;;-0.80;99.90;;;;;;5111170;28;20418;-84
2023/03/08 07:52:43;;;;;;;8.50;7.10;;;-0.70;99.90;;;;;;5096106;28;20119;-84
2023/03/08 07:55:10;;;;;;;10.30;7.90;;;-0.70;99.90;;;;;;5104297;28;20071;-83
2023/03/08 07:57:36;;;;;;;10.60;8.50;;;-0.60;99.90;;;;;;5129127;27;20384;-83
2023/03/08 08:00:06;;;;;;;10.70;8.23;;;-0.50;99.90;;;;;;5105160;28;20062;-83
2023/03/08 08:02:32;;;;;;;11.40;8.20;;;-0.50;99.90;;;;;;5108981;28;20035;-83
2023/03/08 08:04:58;;;;;;;12.93;8.87;;;-0.50;99.90;;;;;;5105768;28;20113;-82
2023/03/08 08:07:24;;;;;;;9.40;7.63;;;-0.40;99.90;;;;;;5103433;28;20047;-81
2023/03/08 08:09:50;;;;;;;10.77;8.03;;;-0.30;99.90;;;;;;5094518;28;20027;-82
2023/03/08 08:12:15;;;;;;;11.37;8.57;;;-0.20;99.90;;;;;;5137597;27;20042;-81
2023/03/08 08:14:41;;;;;;;9.67;7.80;;;-0.20;99.90;;;;;;5146628;27;20039;-81
2023/03/08 08:17:06;;;;;;;12.47;8.27;;;-0.10;99.90;;;;;;5125891;27;20036;-80
2023/03/08 08:19:32;;;;;;;11.73;8.33;;;-0.10;99.90;;;;;;5137411;27;20039;-79
2023/03/08 08:21:59;;;;;;;12.40;7.60;;;0.00;99.90;;;;;;5111509;28;20048;-79
2023/03/08 08:24:25;;;;;;;10.67;7.90;;;0.00;99.90;;;;;;5111337;28;20047;-78
2023/03/08 08:26:50;;;;;;;9.40;7.70;;;0.10;99.90;;;;;;5098675;28;20044;-77
2023/03/08 08:29:16;;;;;;;10.33;7.67;;;0.20;99.90;;;;;;5094832;28;20040;-78
2023/03/08 08:31:41;;;;;;;9.10;7.40;;;0.20;99.90;;;;;;5093906;28;20044;-78
2023/03/08 08:34:07;;;;;;;8.47;7.57;;;0.20;99.90;;;;;;5138562;27;20036;-77
2023/03/08 08:36:33;;;;;;;9.77;7.73;;;0.30;99.90;;;;;;5086776;28;20044;-79
2023/03/08 08:38:58;;;;;;;12.30;7.57;;;0.40;99.90;;;;;;5139387;27;20036;-80
2023/03/08 08:41:24;;;;;;;10.60;7.53;;;0.50;99.90;;;;;;5118473;28;20099;-80
2023/03/08 08:43:49;;;;;;;11.57;8.20;;;0.50;99.90;;;;;;5135863;27;20071;-80
2023/03/08 08:46:16;;;;;;;10.50;7.50;;;0.60;99.90;;;;;;5106775;28;20446;-82
2023/03/08 08:48:42;;;;;;;9.83;7.43;;;0.60;99.90;;;;;;5110305;28;20035;-83
2023/03/08 08:51:10;;;;;;;11.50;7.93;;;0.60;99.90;;;;;;5100972;28;20039;-85
2023/03/08 08:53:36;;;;;;;9.50;7.87;;;0.70;99.90;;;;;;5108125;28;20047;-85
2023/03/08 08:56:23;;;;;;;9.83;7.57;;;0.80;99.90;;;;;;5084663;28;20035;-86
2023/03/08 08:58:49;;;;;;;8.13;6.63;;;0.90;99.90;;;;;;5091171;28;20048;-85
2023/03/08 09:01:17;;;;;;;11.17;7.17;;;0.90;99.90;;;;;;5078371;28;20059;-85
2023/03/08 09:03:43;;;;;;;9.40;7.00;;;1.00;99.90;;;;;;5096985;28;20172;-83
2023/03/08 09:06:09;;;;;;;10.23;7.03;;;1.00;99.90;;;;;;5108860;28;20039;-84
2023/03/08 09:08:35;;;;;;;9.20;6.70;;;1.10;99.90;;;;;;5137524;27;20051;-84
2023/03/08 09:11:03;;;;;;;8.33;7.27;;;1.20;99.90;;;;;;5095530;27;20150;-83
2023/03/08 09:13:29;;;;;;;7.83;6.83;;;1.20;99.90;;;;;;5089069;28;20079;-83
2023/03/08 09:15:55;;;;;;;9.33;7.00;;;1.40;99.90;;;;;;5095878;28;20031;-84
2023/03/08 09:18:20;;;;;;;7.50;6.07;;;1.40;99.90;;;;;;5109103;27;20040;-85
2023/03/08 09:20:46;;;;;;;11.57;6.60;;;1.50;99.90;;;;;;5096371;27;20039;-85
2023/03/08 09:23:11;;;;;;;7.93;6.37;;;1.60;99.90;;;;;;5115376;27;20066;-85
2023/03/08 09:25:37;;;;;;;7.13;6.10;;;1.60;99.90;;;;;;5108572;28;20050;-84
2023/03/08 09:28:02;;;;;;;6.63;5.90;;;1.70;99.90;;;;;;5106262;28;20043;-84
2023/03/08 09:30:29;;;;;;;10.87;6.10;;;1.70;99.90;;;;;;5111752;27;20613;-84
2023/03/08 09:32:54;;;;;;;7.27;6.13;;;1.70;99.90;;;;;;5091161;28;20074;-85
2023/03/08 09:35:20;;;;;;;9.33;6.37;;;1.70;99.90;;;;;;5087579;28;20068;-85
2023/03/08 09:37:45;;;;;;;7.67;6.17;;;1.80;99.90;;;;;;5123344;27;20507;-85
2023/03/08 09:40:24;;;;;;;10.27;6.20;;;1.80;99.90;;;;;;5097089;27;20510;-84
2023/03/08 09:42:50;;;;;;;10.00;6.23;;;1.90;99.90;;;;;;5119723;27;20096;-84
2023/03/08 09:45:24;;;;;;;9.63;6.70;;;2.00;99.90;;;;;;5107153;28;20438;-85
2023/03/08 09:48:13;;;;;;;8.40;6.90;;;2.00;99.90;;;;;;5100730;28;20039;-85
2023/03/08 09:50:48;;;;;;;9.97;7.00;;;2.70;99.90;;;;;;5091482;28;20039;-85
2023/03/08 09:53:38;;;;;;;7.10;6.40;;;2.20;99.90;;;;;;5106271;28;20043;-85
2023/03/08 09:56:10;;;;;;;7.33;6.57;;;2.30;99.90;;;;;;5107334;27;20041;-85
2023/03/08 09:58:39;;;;;;;7.20;6.27;;;2.40;99.90;;;;;;5108410;27;20035;-84
2023/03/08 10:01:42;;;;;;;8.57;5.07;;;2.50;99.90;;;;;;5110141;27;20040;-84
2023/03/08 10:04:30;;;;;;;7.67;4.90;;;2.60;99.90;;;;;;5110613;28;20551;-84
2023/03/08 10:07:26;;;;;;;6.50;4.37;;;2.70;99.90;;;;;;5102300;28;20126;-84
2023/03/08 10:10:22;;;;;;;7.77;4.57;;;2.70;99.90;;;;;;5087754;28;20023;-84
2023/03/08 10:13:12;;;;;;;4.57;3.90;;;2.90;99.90;;;;;;5101462;28;20082;-84
2023/03/08 10:15:44;;;;;;;4.60;3.00;;;3.10;99.90;;;;;;5108648;28;20036;-85
2023/03/08 10:18:34;;;;;;;6.27;3.23;;;3.20;99.90;;;;;;5104472;28;20039;-85
2023/03/08 10:21:01;;;;;;;5.38;3.33;;;3.20;99.90;;;;;;5115299;27;20277;-85
2023/03/08 10:23:31;;;;;;;5.22;3.30;;;3.30;99.90;;;;;;5100746;28;20685;-85
2023/03/08 10:25:58;;;;;;;8.57;4.18;;;3.40;99.90;;;;;;5092517;28;20036;-85
2023/03/08 10:28:25;;;;;;;7.45;3.88;;;3.40;99.90;;;;;;5097494;28;20096;-85
2023/03/08 10:30:55;;;;;;;6.03;3.17;;;3.50;99.90;;;;;;5116042;27;20036;-84
2023/03/08 10:33:23;;;;;;;5.82;3.47;;;3.60;99.90;;;;;;5097669;28;20039;-86
2023/03/08 10:36:03;;;;;;;5.80;3.22;;;3.70;99.90;;;;;;5103370;28;20061;-85
2023/03/08 10:38:31;;;;;;;4.50;3.03;;;3.80;99.90;;;;;;5081824;28;20040;-86
2023/03/08 10:41:14;;;;;;;4.80;3.05;;;3.90;99.90;;;;;;5098033;27;20036;-85
2023/03/08 10:43:49;;;;;;;4.38;3.13;;;4.00;99.90;;;;;;5109852;28;20077;-85
2023/03/08 10:46:17;;;;;;;5.28;2.80;;;4.10;99.90;;;;;;5084629;28;20031;-86
2023/03/08 10:48:44;;;;;;;5.45;2.90;;;4.30;99.90;;;;;;5145888;27;20051;-87
2023/03/08 10:51:28;;;;;;;4.72;2.95;;;4.50;99.90;;;;;;5111536;27;20032;-86
2023/03/08 10:53:59;;;;;;;3.63;2.75;;;4.50;99.90;;;;;;5090652;28;20479;-86
2023/03/08 10:56:39;;;;;;;4.10;3.10;;;4.60;99.90;;;;;;5077669;27;20046;-85
2023/03/08 10:59:15;;;;;;;4.65;1.80;;;4.60;99.90;;;;;;5090601;28;20042;-86
2023/03/08 11:01:53;;;;;;;2.97;1.60;;;4.70;99.90;;;;;;5093490;28;20035;-86
2023/03/08 11:04:21;;;;;;;4.78;1.55;;;4.70;99.90;;;;;;5110225;27;20039;-86
2023/03/08 11:06:47;;;;;;;3.15;1.85;;;4.70;99.90;;;;;;5092453;27;20106;-86
2023/03/08 11:09:27;;;;;;;3.10;1.92;;;4.70;99.90;;;;;;5092652;27;20120;-85
2023/03/08 11:11:57;;;;;;;3.33;1.80;;;4.70;99.90;;;;;;5111404;28;20039;-86
2023/03/08 11:14:28;;;;;;;1.90;1.20;;;4.70;99.90;;;;;;5108329;28;20043;-87
2023/03/08 11:16:54;;;;;;;1.52;1.10;;;4.70;99.90;;;;;;5109999;28;20150;-86
2023/03/08 11:19:31;;;;;;;1.85;1.30;;;4.70;99.90;;;;;;5093078;28;20040;-86
2023/03/08 11:22:16;;;;;;;3.75;1.55;;;4.70;99.90;;;;;;5108016;28;20498;-86
2023/03/08 11:24:47;;;;;;;2.30;1.38;;;4.70;99.90;;;;;;5081210;28;20123;-86
2023/03/08 11:27:41;;;;;;;2.17;1.63;;;4.70;99.90;;;;;;5109225;27;20042;-86
2023/03/08 11:30:34;;;;;;;3.88;1.55;;;4.80;99.90;;;;;;5111979;27;20118;-86
2023/03/08 11:33:41;;;;;;;2.28;1.30;;;4.90;99.90;;;;;;5093851;28;20044;-85
2023/03/08 11:36:35;;;;;;;2.78;0.90;;;5.00;99.90;;;;;;5101257;28;20032;-86
2023/03/08 11:39:17;;;;;;;1.15;0.80;;;5.10;99.90;;;;;;5097191;28;20047;-86
2023/03/08 11:42:17;;;;;;;3.78;0.90;;;5.20;99.90;;;;;;5081154;28;20063;-85
2023/03/08 11:44:49;;;;;;;1.25;0.80;;;5.10;99.90;;;;;;5096717;27;20047;-86
2023/03/08 11:47:39;;;;;;;1.15;0.77;;;5.10;99.90;;;;;;5095809;28;20095;-86
2023/03/08 11:50:20;;;;;;;2.63;0.88;;;5.20;99.90;;;;;;5087421;28;20047;-86
2023/03/08 11:52:56;;;;;;;2.50;0.82;;;5.20;99.90;;;;;;5084568;27;20044;-86
2023/03/08 11:55:32;;;;;;;2.42;0.70;;;5.30;99.90;;;;;;5106526;27;20053;-86
2023/03/08 11:58:12;;;;;;;2.05;0.80;;;5.30;99.90;;;;;;5085703;28;20043;-86
2023/03/08 12:00:42;;;;;;;1.10;0.65;;;5.30;99.90;;;;;;5106495;28;20340;-86
2023/03/08 12:03:23;;;;;;;4.35;1.27;;;5.30;99.90;;;;;;5109647;27;20382;-86
2023/03/08 12:06:03;;;;;;;1.67;0.90;;;5.30;99.90;;;;;;5108447;27;20035;-86
2023/03/08 12:08:32;;;;;;;3.05;1.05;;;5.30;99.90;;;;;;5110980;27;20414;-86
2023/03/08 12:11:02;;;;;;;4.03;0.90;;;5.30;99.90;;;;;;5126017;27;20046;-86
2023/03/08 12:13:32;;;;;;;3.28;0.90;;;5.40;99.90;;;;;;5112894;27;20040;-87
2023/03/08 12:16:18;;;;;;;2.58;1.00;;;5.40;99.90;;;;;;5096170;28;20039;-86
2023/03/08 12:19:29;;;;;;;2.42;0.80;;;5.50;99.90;;;;;;5097420;28;20036;-86
2023/03/08 12:22:10;;;;;;;2.72;0.70;;;5.60;99.90;;;;;;5042032;28;20029;-87
2023/03/08 12:25:04;;;;;;;3.38;0.90;;;5.60;99.90;;;;;;5025437;28;20047;-86
2023/03/08 12:27:33;;;;;;;;;;;5.70;99.90;;;;;;5064310;28;20360;-87
2023/03/08 12:30:33;;;;;;;1.85;0.77;;;5.60;99.90;;;;;;5084535;28;19926;-86
2023/03/08 12:33:02;;;;;;;2.08;0.80;;;5.70;99.90;;;;;;5101241;28;20047;-87
2023/03/08 12:35:33;;;;;;;1.88;0.95;;;5.70;99.90;;;;;;5103816;28;20035;-87
2023/03/08 12:38:14;;;;;;;2.60;1.10;;;5.50;99.90;;;;;;5080347;28;20040;-86
2023/03/08 12:40:49;;;;;;;1.88;1.17;;;5.50;99.90;;;;;;5122548;27;20028;-86
2023/03/08 12:43:20;;;;;;;2.25;1.30;;;5.50;99.90;;;;;;5113818;27;20036;-88
2023/03/08 12:46:09;;;;;;;2.90;1.30;;;5.60;99.90;;;;;;5083148;28;20069;-87
2023/03/08 12:48:43;;;;;;;2.05;1.40;;;5.70;99.90;;;;;;5094642;28;20096;-87
2023/03/08 12:51:13;;;;;;;3.17;1.48;;;5.70;99.90;;;;;;5130271;27;20032;-87
2023/03/08 12:53:40;;;;;;;2.17;1.55;;;5.70;99.90;;;;;;5114343;28;20051;-86
2023/03/08 12:56:20;;;;;;;3.45;1.65;;;5.80;99.90;;;;;;5095095;28;20135;-86
2023/03/08 12:58:57;;;;;;;6.15;1.80;;;5.90;99.90;;;;;;5095661;28;20044;-86
2023/03/08 13:01:31;;;;;;;2.72;1.60;;;5.90;99.90;;;;;;5111533;28;20071;-87
2023/03/08 13:03:57;;;;;;;2.90;1.80;;;6.10;99.90;;;;;;5096131;28;20119;-86